createdAt,value
2017-12-20T00:02:14.357Z,28.30
2017-12-20T00:04:41.957Z,28.30
2017-12-20T00:07:09.621Z,28.30
2017-12-20T00:09:37.167Z,28.30
2017-12-20T00:12:04.755Z,28.30
2017-12-20T00:14:32.385Z,28.30
2017-12-20T00:16:59.954Z,28.30
2017-12-20T00:19:27.517Z,28.30
2017-12-20T00:21:55.115Z,28.30
2017-12-20T00:24:23.463Z,28.20
2017-12-20T00:26:51.057Z,28.20
2017-12-20T00:29:18.601Z,28.20
2017-12-20T00:31:46.952Z,28.20
2017-12-20T00:34:14.545Z,28.20
2017-12-20T00:36:42.881Z,28.20
2017-12-20T00:39:10.461Z,28.20
2017-12-20T00:41:38.054Z,28.20
2017-12-20T00:44:06.360Z,28.20
2017-12-20T00:46:33.952Z,28.20
2017-12-20T00:49:01.545Z,28.20
2017-12-20T00:51:29.879Z,28.20
2017-12-20T00:53:57.449Z,28.20
2017-12-20T00:56:25.814Z,28.20
2017-12-20T00:58:53.447Z,28.20
2017-12-20T01:01:21.069Z,28.10
2017-12-20T01:03:49.509Z,28.20
2017-12-20T01:06:17.086Z,28.10
2017-12-20T01:08:44.635Z,28.10
2017-12-20T01:11:12.191Z,28.10
2017-12-20T01:13:39.795Z,28.10
2017-12-20T01:16:08.113Z,28.10
2017-12-20T01:18:35.658Z,28.10
2017-12-20T01:21:03.248Z,28.60
2017-12-20T01:23:30.817Z,28.10
2017-12-20T01:25:58.564Z,28.10
2017-12-20T01:28:26.110Z,28.10
2017-12-20T01:30:53.656Z,28.20
2017-12-20T01:33:21.254Z,28.10
2017-12-20T01:35:48.904Z,28.20
2017-12-20T01:38:16.465Z,28.10
2017-12-20T01:40:44.042Z,28.10
2017-12-20T01:43:11.606Z,28.10
2017-12-20T01:45:39.241Z,28.10
2017-12-20T01:48:06.814Z,28.10
2017-12-20T01:50:34.492Z,28.10
2017-12-20T01:53:02.076Z,28.10
2017-12-20T01:55:30.404Z,28.20
2017-12-20T01:57:58.160Z,28.10
2017-12-20T02:00:25.706Z,28.10
2017-12-20T02:02:53.954Z,28.10
2017-12-20T02:05:22.308Z,28.20
2017-12-20T02:07:49.838Z,28.10
2017-12-20T02:10:17.538Z,28.10
2017-12-20T02:12:45.900Z,28.50
2017-12-20T02:15:13.472Z,28.10
2017-12-20T02:17:41.123Z,28.10
2017-12-20T02:20:08.724Z,28.10
2017-12-20T02:22:36.278Z,28.10
2017-12-20T02:25:04.644Z,28.10
2017-12-20T02:27:32.950Z,28.10
2017-12-20T02:30:00.504Z,28.10
2017-12-20T02:32:28.112Z,28.10
2017-12-20T02:34:55.697Z,28.10
2017-12-20T02:37:24.038Z,28.20
2017-12-20T02:39:51.612Z,28.10
2017-12-20T02:42:19.188Z,28.10
2017-12-20T02:44:46.750Z,28.10
2017-12-20T02:47:15.119Z,28.10
2017-12-20T02:49:43.465Z,28.10
2017-12-20T02:52:11.006Z,28.10
2017-12-20T02:54:38.578Z,28.10
2017-12-20T02:57:06.143Z,28.10
2017-12-20T02:59:33.734Z,28.10
2017-12-20T03:02:01.269Z,28.10
2017-12-20T03:04:28.826Z,28.10
2017-12-20T03:06:56.436Z,28.10
2017-12-20T03:09:24.754Z,28.10
2017-12-20T03:11:52.328Z,28.10
2017-12-20T03:14:19.890Z,28.10
2017-12-20T03:16:47.474Z,28.10
2017-12-20T03:19:15.022Z,28.10
2017-12-20T03:21:42.686Z,28.10
2017-12-20T03:24:10.246Z,28.10
2017-12-20T03:26:37.845Z,28.10
2017-12-20T03:29:06.157Z,28.10
2017-12-20T03:31:33.728Z,28.10
2017-12-20T03:34:01.292Z,28.10
2017-12-20T03:36:28.868Z,28.10
2017-12-20T03:38:56.428Z,28.10
2017-12-20T03:41:24.039Z,28.10
2017-12-20T03:43:51.603Z,28.10
2017-12-20T03:46:19.130Z,28.10
2017-12-20T03:48:47.505Z,28.10
2017-12-20T03:51:15.936Z,28.10
2017-12-20T03:53:43.536Z,28.10
2017-12-20T03:56:11.842Z,28.30
2017-12-20T03:58:39.493Z,28.10
2017-12-20T04:01:08.040Z,28.10
2017-12-20T04:03:35.590Z,28.10
2017-12-20T04:06:03.176Z,28.10
2017-12-20T04:08:30.750Z,28.10
2017-12-20T04:10:59.082Z,28.10
2017-12-20T04:13:26.667Z,28.10
2017-12-20T04:15:54.254Z,28.10
2017-12-20T04:18:21.794Z,27.80
2017-12-20T04:20:50.134Z,28.10
2017-12-20T04:23:17.774Z,28.10
2017-12-20T04:25:45.340Z,28.10
2017-12-20T04:28:12.976Z,28.10
2017-12-20T04:30:40.535Z,28.10
2017-12-20T04:33:08.113Z,28.10
2017-12-20T04:35:35.670Z,28.10
2017-12-20T04:38:03.309Z,28.10
2017-12-20T04:40:31.728Z,28.10
2017-12-20T04:42:59.643Z,28.10
2017-12-20T04:45:27.974Z,28.10
2017-12-20T04:47:55.558Z,28.10
2017-12-20T04:50:23.364Z,28.10
2017-12-20T04:52:50.998Z,28.10
2017-12-20T04:55:18.554Z,28.10
2017-12-20T04:57:46.273Z,28.10
2017-12-20T05:00:13.872Z,28.10
2017-12-20T05:02:41.436Z,28.10
2017-12-20T05:05:09.070Z,28.10
2017-12-20T05:07:36.649Z,28.10
2017-12-20T05:10:04.247Z,28.10
2017-12-20T05:12:31.894Z,28.10
2017-12-20T05:15:00.217Z,28.10
2017-12-20T05:17:27.806Z,28.10
2017-12-20T05:19:55.393Z,28.10
2017-12-20T05:22:23.862Z,28.00
2017-12-20T05:24:51.401Z,28.00
2017-12-20T05:27:18.978Z,28.10
2017-12-20T05:29:46.518Z,28.10
2017-12-20T05:32:14.094Z,28.30
2017-12-20T05:34:42.426Z,28.70
2017-12-20T05:37:10.075Z,28.10
2017-12-20T05:39:37.663Z,28.10
2017-12-20T05:42:05.239Z,28.10
2017-12-20T05:44:34.444Z,28.10
2017-12-20T05:47:01.979Z,28.00
2017-12-20T05:49:29.545Z,28.10
2017-12-20T05:51:57.137Z,28.10
2017-12-20T05:54:24.714Z,28.60
2017-12-20T05:56:52.319Z,28.10
2017-12-20T05:59:19.885Z,28.10
2017-12-20T06:01:47.453Z,28.10
2017-12-20T06:04:15.037Z,28.10
2017-12-20T06:06:43.388Z,28.00
2017-12-20T06:09:11.027Z,28.10
2017-12-20T06:11:38.625Z,28.10
2017-12-20T06:14:06.201Z,28.10
2017-12-20T06:16:34.545Z,28.10
2017-12-20T06:19:02.147Z,28.00
2017-12-20T06:21:30.463Z,28.10
2017-12-20T06:23:58.113Z,28.10
2017-12-20T06:26:25.716Z,28.00
2017-12-20T06:28:53.267Z,28.10
2017-12-20T06:31:20.862Z,28.00
2017-12-20T06:33:49.205Z,28.10
2017-12-20T06:36:16.770Z,28.10
2017-12-20T06:38:44.363Z,28.00
2017-12-20T06:41:12.675Z,28.10
2017-12-20T06:43:40.259Z,28.00
2017-12-20T06:46:07.808Z,28.10
2017-12-20T06:48:35.452Z,28.00
2017-12-20T06:51:03.010Z,28.00
2017-12-20T06:53:30.669Z,28.10
2017-12-20T06:55:58.269Z,28.00
2017-12-20T06:58:25.819Z,28.10
2017-12-20T07:00:53.391Z,28.00
2017-12-20T07:03:21.053Z,28.10
2017-12-20T07:05:48.641Z,28.30
2017-12-20T07:08:16.988Z,29.40
2017-12-20T07:10:44.553Z,29.50
2017-12-20T07:13:12.180Z,29.00
2017-12-20T07:15:39.712Z,28.70
2017-12-20T07:18:07.345Z,29.10
2017-12-20T07:20:34.905Z,29.00
2017-12-20T07:23:02.507Z,28.50
2017-12-20T07:25:30.063Z,28.80
2017-12-20T07:27:57.665Z,28.80
2017-12-20T07:30:25.265Z,28.80
2017-12-20T07:32:53.627Z,28.60
2017-12-20T07:35:21.943Z,29.20
2017-12-20T07:37:49.525Z,29.20
2017-12-20T07:40:17.115Z,29.00
2017-12-20T07:42:44.703Z,29.20
2017-12-20T07:45:12.304Z,29.30
2017-12-20T07:47:39.867Z,28.90
2017-12-20T07:50:07.431Z,28.80
2017-12-20T07:52:35.081Z,28.70
2017-12-20T07:55:02.640Z,28.50
2017-12-20T07:57:30.283Z,28.00
2017-12-20T07:59:57.846Z,28.00
2017-12-20T08:02:25.428Z,28.00
2017-12-20T08:04:53.010Z,28.00
2017-12-20T08:07:20.602Z,28.00
2017-12-20T08:09:48.920Z,27.90
2017-12-20T08:12:16.520Z,27.90
2017-12-20T08:14:44.079Z,27.90
2017-12-20T08:17:11.625Z,28.40
2017-12-20T08:19:39.207Z,27.90
2017-12-20T08:22:07.517Z,27.90
2017-12-20T08:24:35.385Z,27.90
2017-12-20T08:27:02.940Z,27.90
2017-12-20T08:29:30.500Z,27.80
2017-12-20T08:31:58.072Z,27.90
2017-12-20T08:34:25.654Z,27.80
2017-12-20T08:36:53.256Z,27.90
2017-12-20T08:39:21.598Z,27.90
2017-12-20T08:41:50.665Z,27.80
2017-12-20T08:44:18.386Z,27.80
2017-12-20T08:46:46.734Z,27.00
2017-12-20T08:49:14.313Z,27.10
2017-12-20T08:51:42.717Z,27.20
2017-12-20T08:54:10.322Z,27.20
2017-12-20T08:56:38.160Z,26.90
2017-12-20T08:59:05.717Z,26.60
2017-12-20T09:01:33.306Z,26.90
2017-12-20T09:04:00.886Z,27.60
2017-12-20T09:06:28.438Z,27.90
2017-12-20T09:08:56.045Z,27.90
2017-12-20T09:11:23.610Z,27.80
2017-12-20T09:13:51.242Z,27.90
2017-12-20T09:16:19.618Z,27.50
2017-12-20T09:18:47.217Z,27.50
2017-12-20T09:21:14.808Z,27.50
2017-12-20T09:23:42.398Z,27.70
2017-12-20T09:26:11.736Z,27.00
2017-12-20T09:28:39.414Z,27.00
2017-12-20T09:31:10.102Z,27.70
2017-12-20T09:33:38.504Z,26.10
2017-12-20T09:36:06.918Z,26.40
2017-12-20T09:38:34.478Z,26.40
2017-12-20T09:41:02.051Z,26.40
2017-12-20T09:43:29.878Z,26.90
2017-12-20T09:45:57.443Z,27.20
2017-12-20T09:48:25.031Z,26.90
2017-12-20T09:50:52.696Z,27.10
2017-12-20T09:53:20.251Z,27.20
2017-12-20T09:55:47.836Z,27.50
2017-12-20T09:58:16.154Z,26.90
2017-12-20T10:00:43.684Z,26.90
2017-12-20T10:03:12.003Z,26.80
2017-12-20T10:05:39.594Z,26.80
2017-12-20T10:08:07.248Z,26.70
2017-12-20T10:10:34.870Z,26.90
2017-12-20T10:13:02.410Z,26.70
2017-12-20T10:15:30.013Z,26.80
2017-12-20T10:17:57.610Z,26.50
2017-12-20T10:20:25.147Z,26.80
2017-12-20T10:22:53.341Z,26.60
2017-12-20T10:25:20.914Z,26.80
2017-12-20T10:27:49.252Z,26.50
2017-12-20T10:30:16.926Z,26.50
2017-12-20T10:32:44.466Z,26.60
2017-12-20T10:35:12.060Z,26.10
2017-12-20T10:37:40.313Z,26.00
2017-12-20T10:40:08.992Z,25.90
2017-12-20T10:42:36.570Z,26.00
2017-12-20T10:45:04.246Z,25.90
2017-12-20T10:47:32.595Z,25.70
2017-12-20T10:50:00.162Z,26.30
2017-12-20T10:52:29.317Z,25.20
2017-12-20T10:54:56.872Z,25.20
2017-12-20T10:57:24.567Z,25.10
2017-12-20T10:59:52.120Z,25.00
2017-12-20T11:02:19.687Z,24.80
2017-12-20T11:04:47.287Z,24.50
2017-12-20T11:07:15.656Z,24.00
2017-12-20T11:09:43.212Z,24.00
2017-12-20T11:12:10.760Z,24.00
2017-12-20T11:14:38.416Z,24.10
2017-12-20T11:17:05.981Z,24.10
2017-12-20T11:19:33.546Z,24.20
2017-12-20T11:22:01.130Z,24.20
2017-12-20T11:24:29.445Z,25.60
2017-12-20T11:26:57.002Z,25.60
2017-12-20T11:29:24.608Z,28.90
2017-12-20T11:31:52.195Z,26.50
2017-12-20T11:34:20.616Z,24.50
2017-12-20T11:36:48.179Z,24.50
2017-12-20T11:39:15.726Z,24.50
2017-12-20T11:41:43.333Z,24.50
2017-12-20T11:44:11.656Z,24.60
2017-12-20T11:46:39.202Z,24.60
2017-12-20T11:49:06.838Z,24.50
2017-12-20T11:51:35.216Z,24.60
2017-12-20T11:54:03.577Z,24.60
2017-12-20T11:56:31.184Z,24.60
2017-12-20T11:58:58.842Z,24.50
2017-12-20T12:01:26.441Z,26.20
2017-12-20T12:03:54.122Z,25.70
2017-12-20T12:06:21.727Z,26.60
2017-12-20T12:08:49.282Z,26.90
2017-12-20T12:11:16.850Z,26.80
2017-12-20T12:13:44.433Z,26.90
2017-12-20T12:16:12.022Z,27.10
2017-12-20T12:18:39.612Z,27.60
2017-12-20T12:21:07.192Z,27.40
2017-12-20T12:23:34.754Z,27.50
2017-12-20T12:26:02.410Z,27.90
2017-12-20T12:28:30.004Z,28.00
2017-12-20T12:30:57.579Z,27.80
2017-12-20T12:33:25.175Z,27.80
2017-12-20T12:35:52.744Z,28.00
2017-12-20T12:38:20.290Z,28.20
2017-12-20T12:40:48.669Z,27.90
2017-12-20T12:43:17.013Z,27.80
2017-12-20T12:45:44.629Z,27.80
2017-12-20T12:48:13.105Z,28.10
2017-12-20T12:50:40.649Z,28.30
2017-12-20T12:53:08.256Z,28.00
2017-12-20T12:55:35.902Z,28.10
2017-12-20T12:58:03.444Z,28.40
2017-12-20T13:00:31.046Z,28.00
2017-12-20T13:02:58.761Z,28.40
2017-12-20T13:05:26.342Z,28.40
2017-12-20T13:07:53.910Z,28.30
2017-12-20T13:10:21.483Z,28.40
2017-12-20T13:12:49.048Z,28.40
2017-12-20T13:15:16.775Z,28.40
2017-12-20T13:17:44.337Z,28.40
2017-12-20T13:20:11.997Z,28.90
2017-12-20T13:22:39.646Z,28.40
2017-12-20T13:25:07.193Z,28.40
2017-12-20T13:27:34.779Z,28.40
2017-12-20T13:30:02.331Z,28.30
2017-12-20T13:32:29.971Z,28.30
2017-12-20T13:34:58.305Z,28.00
2017-12-20T13:37:25.993Z,28.10
2017-12-20T13:39:53.537Z,27.90
2017-12-20T13:42:21.134Z,27.80
2017-12-20T13:44:48.704Z,27.90
2017-12-20T13:47:16.326Z,27.60
2017-12-20T13:49:43.901Z,27.90
2017-12-20T13:52:12.231Z,28.40
2017-12-20T13:54:39.835Z,27.80
2017-12-20T13:57:08.142Z,28.30
2017-12-20T13:59:35.843Z,27.90
2017-12-20T14:02:03.532Z,28.20
2017-12-20T14:04:31.173Z,28.20
2017-12-20T14:06:58.806Z,28.20
2017-12-20T14:09:26.374Z,27.90
2017-12-20T14:11:54.103Z,28.20
2017-12-20T14:14:21.849Z,28.20
2017-12-20T14:16:50.183Z,27.70
2017-12-20T14:19:17.787Z,27.70
2017-12-20T14:21:45.363Z,28.20
2017-12-20T14:24:13.685Z,28.00
2017-12-20T14:26:41.687Z,28.10
2017-12-20T14:29:09.244Z,28.20
2017-12-20T14:31:36.853Z,28.20
2017-12-20T14:34:04.408Z,28.20
2017-12-20T14:36:31.987Z,28.10
2017-12-20T14:38:59.578Z,27.70
2017-12-20T14:41:27.197Z,27.90
2017-12-20T14:43:54.805Z,27.60
2017-12-20T14:46:22.375Z,27.60
2017-12-20T14:48:50.752Z,27.50
2017-12-20T14:51:19.076Z,27.50
2017-12-20T14:53:47.445Z,27.30
2017-12-20T14:56:15.119Z,27.30
2017-12-20T14:58:42.695Z,27.50
2017-12-20T15:01:10.276Z,27.60
2017-12-20T15:03:37.843Z,27.50
2017-12-20T15:06:05.446Z,27.60
2017-12-20T15:08:33.056Z,28.10
2017-12-20T15:11:00.607Z,27.60
2017-12-20T15:13:28.230Z,28.70
2017-12-20T15:15:56.650Z,27.30
2017-12-20T15:18:24.190Z,27.40
2017-12-20T15:20:51.977Z,27.50
2017-12-20T15:23:19.532Z,27.60
2017-12-20T15:25:47.142Z,28.10
2017-12-20T15:28:14.701Z,27.90
2017-12-20T15:30:42.273Z,28.10
2017-12-20T15:33:09.874Z,27.60
2017-12-20T15:35:37.425Z,27.80
2017-12-20T15:38:05.257Z,28.00
2017-12-20T15:40:32.835Z,28.10
2017-12-20T15:43:00.495Z,27.40
2017-12-20T15:45:28.043Z,27.60
2017-12-20T15:47:55.636Z,28.10
2017-12-20T15:50:23.219Z,27.70
2017-12-20T15:52:51.683Z,27.50
2017-12-20T15:55:19.243Z,27.50
2017-12-20T15:57:46.783Z,27.80
2017-12-20T16:00:14.455Z,27.70
2017-12-20T16:02:42.062Z,28.10
2017-12-20T16:05:09.651Z,28.10
2017-12-20T16:07:37.225Z,28.00
2017-12-20T16:10:04.773Z,28.10
2017-12-20T16:12:32.401Z,27.90
2017-12-20T16:14:59.994Z,27.70
2017-12-20T16:17:27.534Z,27.20
2017-12-20T16:19:55.133Z,27.50
2017-12-20T16:22:23.461Z,27.30
2017-12-20T16:24:51.089Z,27.70
2017-12-20T16:27:19.475Z,27.60
2017-12-20T16:29:47.809Z,27.40
2017-12-20T16:32:15.375Z,27.40
2017-12-20T16:34:42.972Z,27.50
2017-12-20T16:37:10.574Z,27.40
2017-12-20T16:39:38.142Z,27.50
2017-12-20T16:42:05.800Z,27.20
2017-12-20T16:44:33.360Z,27.50
2017-12-20T16:47:00.929Z,27.30
2017-12-20T16:49:28.608Z,27.10
2017-12-20T16:51:56.198Z,27.10
2017-12-20T16:54:24.668Z,28.20
2017-12-20T16:56:53.018Z,28.60
2017-12-20T16:59:20.590Z,28.20
2017-12-20T17:01:49.744Z,30.90
2017-12-20T17:04:17.294Z,30.90
2017-12-20T17:06:44.834Z,30.10
2017-12-20T17:09:13.184Z,29.20
2017-12-20T17:11:40.849Z,29.10
2017-12-20T17:14:08.433Z,29.50
2017-12-20T17:16:36.816Z,28.50
2017-12-20T17:19:05.120Z,28.50
2017-12-20T17:21:32.728Z,28.40
2017-12-20T17:24:00.323Z,28.40
2017-12-20T17:26:28.678Z,28.50
2017-12-20T17:28:56.262Z,28.40
2017-12-20T17:31:23.884Z,28.50
2017-12-20T17:33:51.486Z,28.50
2017-12-20T17:36:19.036Z,28.50
2017-12-20T17:38:47.390Z,28.50
2017-12-20T17:41:14.954Z,28.50
2017-12-20T17:43:42.506Z,28.50
2017-12-20T17:46:10.110Z,29.00
2017-12-20T17:48:38.620Z,28.50
2017-12-20T17:51:06.211Z,28.40
2017-12-20T17:53:33.953Z,28.50
2017-12-20T17:56:01.538Z,28.40
2017-12-20T17:58:29.122Z,28.40
2017-12-20T18:00:57.546Z,28.40
2017-12-20T18:03:25.184Z,28.40
2017-12-20T18:05:52.765Z,28.40
2017-12-20T18:08:20.301Z,28.40
2017-12-20T18:10:47.881Z,28.40
2017-12-20T18:13:15.418Z,28.40
2017-12-20T18:15:43.022Z,28.40
2017-12-20T18:18:10.625Z,28.40
2017-12-20T18:20:39.174Z,28.40
2017-12-20T18:23:07.486Z,28.40
2017-12-20T18:25:35.127Z,28.40
2017-12-20T18:28:02.822Z,28.40
2017-12-20T18:30:30.390Z,28.40
2017-12-20T18:32:58.025Z,28.40
2017-12-20T18:35:26.480Z,28.40
2017-12-20T18:37:54.041Z,28.40
2017-12-20T18:40:21.609Z,28.40
2017-12-20T18:42:49.947Z,28.40
2017-12-20T18:45:17.527Z,28.40
2017-12-20T18:47:45.102Z,28.40
2017-12-20T18:50:13.470Z,28.40
2017-12-20T18:52:41.024Z,28.40
2017-12-20T18:55:08.751Z,28.40
2017-12-20T18:57:36.467Z,28.40
2017-12-20T19:00:04.056Z,28.40
2017-12-20T19:02:31.683Z,28.40
2017-12-20T19:04:59.255Z,28.40
2017-12-20T19:07:27.601Z,28.40
2017-12-20T19:09:55.204Z,28.80
2017-12-20T19:12:23.519Z,28.30
2017-12-20T19:14:51.121Z,28.30
2017-12-20T19:17:18.734Z,28.40
2017-12-20T19:19:47.059Z,28.30
2017-12-20T19:22:15.549Z,28.30
2017-12-20T19:24:43.922Z,28.30
2017-12-20T19:27:12.272Z,28.50
2017-12-20T19:29:39.963Z,28.30
2017-12-20T19:32:07.531Z,28.30
2017-12-20T19:34:35.891Z,28.30
2017-12-20T19:37:03.491Z,28.30
2017-12-20T19:39:31.037Z,28.30
2017-12-20T19:41:59.578Z,28.30
2017-12-20T19:44:27.253Z,28.30
2017-12-20T19:46:54.871Z,28.30
2017-12-20T19:49:22.471Z,28.30
2017-12-20T19:51:50.105Z,28.30
2017-12-20T19:54:17.735Z,28.30
2017-12-20T19:56:45.515Z,28.30
2017-12-20T19:59:13.117Z,28.30
2017-12-20T20:01:40.713Z,28.30
2017-12-20T20:04:08.327Z,28.30
2017-12-20T20:06:37.365Z,28.30
2017-12-20T20:09:04.962Z,28.30
2017-12-20T20:11:32.587Z,28.30
2017-12-20T20:14:00.938Z,28.30
2017-12-20T20:16:28.504Z,28.30
2017-12-20T20:18:56.230Z,28.30
2017-12-20T20:21:23.822Z,28.10
2017-12-20T20:23:51.445Z,28.30
2017-12-20T20:26:19.085Z,28.30
2017-12-20T20:28:46.825Z,28.30
2017-12-20T20:31:15.300Z,28.30
2017-12-20T20:33:43.662Z,28.30
2017-12-20T20:36:11.265Z,28.30
2017-12-20T20:38:38.853Z,28.30
2017-12-20T20:41:07.255Z,28.30
2017-12-20T20:43:34.829Z,28.30
2017-12-20T20:46:03.213Z,28.30
2017-12-20T20:48:31.569Z,28.30
2017-12-20T20:50:59.363Z,28.30
2017-12-20T20:53:26.970Z,28.30
2017-12-20T20:55:54.552Z,28.30
2017-12-20T20:58:22.175Z,28.30
2017-12-20T21:00:49.827Z,28.30
2017-12-20T21:03:17.363Z,28.30
2017-12-20T21:05:45.735Z,28.30
2017-12-20T21:08:13.302Z,28.30
2017-12-20T21:10:41.679Z,28.30
2017-12-20T21:13:10.039Z,28.30
2017-12-20T21:15:37.615Z,28.30
2017-12-20T21:18:05.982Z,28.30
2017-12-20T21:20:33.553Z,28.30
2017-12-20T21:23:01.178Z,28.30
2017-12-20T21:25:28.758Z,28.30
2017-12-20T21:27:56.443Z,28.30
2017-12-20T21:30:24.065Z,28.30
2017-12-20T21:32:51.664Z,28.30
2017-12-20T21:35:20.044Z,28.30
2017-12-20T21:37:50.708Z,28.30
2017-12-20T21:40:18.290Z,28.30
2017-12-20T21:42:45.940Z,28.30
2017-12-20T21:45:13.527Z,28.30
2017-12-20T21:47:41.097Z,28.30
2017-12-20T21:50:08.700Z,28.30
2017-12-20T21:52:36.245Z,28.30
2017-12-20T21:55:04.672Z,28.30
2017-12-20T21:57:32.254Z,28.30
2017-12-20T21:59:59.807Z,28.30
2017-12-20T22:02:27.485Z,28.30
2017-12-20T22:04:55.063Z,28.30
2017-12-20T22:07:23.501Z,28.30
2017-12-20T22:09:51.059Z,28.30
2017-12-20T22:12:18.696Z,28.30
2017-12-20T22:14:46.353Z,28.30
2017-12-20T22:17:13.915Z,28.30
2017-12-20T22:19:41.598Z,28.30
2017-12-20T22:22:09.201Z,28.30
2017-12-20T22:24:37.563Z,28.30
2017-12-20T22:27:05.122Z,28.80
2017-12-20T22:29:32.718Z,28.30
2017-12-20T22:32:00.370Z,28.40
2017-12-20T22:34:28.727Z,28.30
2017-12-20T22:36:57.109Z,28.30
2017-12-20T22:39:24.663Z,28.30
2017-12-20T22:41:52.995Z,28.30
2017-12-20T22:44:21.515Z,28.30
2017-12-20T22:46:49.145Z,28.30
2017-12-20T22:49:17.011Z,28.30
2017-12-20T22:51:44.731Z,28.30
2017-12-20T22:54:13.123Z,28.30
2017-12-20T22:56:40.779Z,28.30
2017-12-20T22:59:08.345Z,28.30
2017-12-20T23:01:36.127Z,28.30
2017-12-20T23:04:03.786Z,28.30
2017-12-20T23:06:31.399Z,28.30
2017-12-20T23:08:59.753Z,28.30
2017-12-20T23:11:27.355Z,28.30
2017-12-20T23:13:55.675Z,28.30
2017-12-20T23:16:23.255Z,28.30
2017-12-20T23:18:51.023Z,28.30
2017-12-20T23:21:18.755Z,28.30
2017-12-20T23:23:46.386Z,28.30
2017-12-20T23:26:14.007Z,28.30
2017-12-20T23:28:41.599Z,28.30
2017-12-20T23:31:10.000Z,28.30
2017-12-20T23:33:37.574Z,28.30
2017-12-20T23:36:05.166Z,28.30
2017-12-20T23:38:32.788Z,28.30
2017-12-20T23:41:00.337Z,28.30
2017-12-20T23:43:27.904Z,28.30
2017-12-20T23:45:55.597Z,28.30
2017-12-20T23:48:23.166Z,28.30
2017-12-20T23:50:50.809Z,28.30
2017-12-20T23:53:18.421Z,28.30
2017-12-20T23:55:46.779Z,28.30
2017-12-20T23:58:14.371Z,28.30
